Time;durP1;ratioP1;P1;durP2;ratioP2;P2;SDS_P1;SDS_P2;PMS_P1;PMS_P2;Temp;Humidity;BMP_temperature;BMP_pressure;BME280_temperature;BME280_humidity;BME280_pressure;Samples;Min_cycle;Max_cycle;Signal;HPM_P1;HPM_P2
2022/12/24 00:01:01;;;;;;;10.57;2.25;;;;;;;;;;4937373;29;20043;-61
2022/12/24 00:03:27;;;;;;;7.15;2.33;;;;;;;;;;4937234;29;20058;-61
2022/12/24 00:05:54;;;;;;;6.88;2.60;;;;;;;;;;4937163;29;20050;-61
2022/12/24 00:08:21;;;;;;;12.30;2.42;;;;;;;;;;4938673;29;20461;-61
2022/12/24 00:10:49;;;;;;;7.90;2.30;;;;;;;;;;4939354;29;20123;-61
2022/12/24 00:13:15;;;;;;;15.00;2.60;;;;;;;;;;4937028;29;20050;-60
2022/12/24 00:15:42;;;;;;;11.40;3.03;;;;;;;;;;4937714;29;20407;-61
2022/12/24 00:18:08;;;;;;;11.95;2.60;;;;;;;;;;4939103;29;20064;-61
2022/12/24 00:20:35;;;;;;;9.23;2.85;;;;;;;;;;4937383;29;20469;-60
2022/12/24 00:23:02;;;;;;;8.85;2.85;;;;;;;;;;4920913;29;20126;-61
2022/12/24 00:25:28;;;;;;;7.88;2.72;;;;;;;;;;4936858;29;20044;-61
2022/12/24 00:27:55;;;;;;;10.52;2.97;;;;;;;;;;4937545;29;20051;-61
2022/12/24 00:30:21;;;;;;;11.57;3.38;;;;;;;;;;4938090;29;20052;-61
2022/12/24 00:32:48;;;;;;;7.82;3.10;;;;;;;;;;4939453;29;20054;-61
2022/12/24 00:35:14;;;;;;;9.98;3.22;;;;;;;;;;4921226;29;20063;-61
2022/12/24 00:37:41;;;;;;;11.65;2.50;;;;;;;;;;4938456;29;20036;-60
2022/12/24 00:40:07;;;;;;;11.60;2.58;;;;;;;;;;4937310;29;20411;-61
2022/12/24 00:42:34;;;;;;;7.32;2.28;;;;;;;;;;4920158;29;20497;-59
2022/12/24 00:45:00;;;;;;;9.88;2.90;;;;;;;;;;4937546;29;20048;-59
2022/12/24 00:47:27;;;;;;;8.95;2.10;;;;;;;;;;4905721;29;20051;-61
2022/12/24 00:49:54;;;;;;;11.57;2.80;;;;;;;;;;4938046;29;20488;-60
2022/12/24 00:52:20;;;;;;;9.45;2.95;;;;;;;;;;4937744;29;20040;-59
2022/12/24 00:54:47;;;;;;;15.80;3.17;;;;;;;;;;4939654;29;20095;-61
2022/12/24 00:57:14;;;;;;;9.23;2.85;;;;;;;;;;4938205;29;20036;-60
2022/12/24 00:59:43;;;;;;;11.13;2.95;;;;;;;;;;4937960;29;20047;-60
2022/12/24 01:02:09;;;;;;;9.68;2.70;;;;;;;;;;4938116;29;20040;-60
2022/12/24 01:07:25;;;;;;;14.48;2.97;;;;;;;;;;4921526;29;20500;-62
2022/12/24 01:09:52;;;;;;;10.85;2.30;;;;;;;;;;4937802;29;20060;-60
2022/12/24 01:12:22;;;;;;;14.07;2.83;;;;;;;;;;4921979;29;20040;-61
2022/12/24 01:14:48;;;;;;;9.55;2.72;;;;;;;;;;4919717;29;20385;-59
2022/12/24 01:17:15;;;;;;;6.22;1.80;;;;;;;;;;4936518;29;20122;-61
2022/12/24 01:19:41;;;;;;;9.98;2.78;;;;;;;;;;4919242;29;20572;-61
2022/12/24 01:22:08;;;;;;;9.55;2.33;;;;;;;;;;4936103;29;20047;-61
2022/12/24 01:24:34;;;;;;;12.88;3.05;;;;;;;;;;4936086;29;20488;-61
2022/12/24 01:27:01;;;;;;;9.73;3.17;;;;;;;;;;4918202;29;20053;-61
2022/12/24 01:29:27;;;;;;;13.50;3.30;;;;;;;;;;4935592;29;20062;-61
2022/12/24 01:31:54;;;;;;;10.18;2.20;;;;;;;;;;4918459;29;20047;-61
2022/12/24 01:34:20;;;;;;;9.90;2.53;;;;;;;;;;4936307;29;20040;-62
2022/12/24 01:36:46;;;;;;;10.40;2.55;;;;;;;;;;4918342;29;20035;-61
2022/12/24 01:39:13;;;;;;;11.40;3.25;;;;;;;;;;4935417;29;20054;-61
2022/12/24 01:44:32;;;;;;;8.07;2.35;;;;;;;;;;4935395;29;20063;-61
2022/12/24 01:47:08;;;;;;;12.15;2.85;;;;;;;;;;4934935;29;20410;-61
2022/12/24 01:49:35;;;;;;;9.25;2.20;;;;;;;;;;4935463;29;20493;-61
2022/12/24 01:52:05;;;;;;;10.55;2.45;;;;;;;;;;4935495;29;20099;-61
2022/12/24 01:54:35;;;;;;;9.65;3.33;;;;;;;;;;4935103;29;20126;-61
2022/12/24 01:57:05;;;;;;;10.25;2.63;;;;;;;;;;4934747;29;20453;-60
2022/12/24 01:59:32;;;;;;;9.63;2.55;;;;;;;;;;4934490;29;20326;-61
2022/12/24 02:01:59;;;;;;;8.32;2.70;;;;;;;;;;4918267;29;20036;-62
2022/12/24 02:04:32;;;;;;;9.95;2.55;;;;;;;;;;4935149;29;20047;-62
2022/12/24 02:06:58;;;;;;;16.30;3.38;;;;;;;;;;4934574;29;20059;-61
2022/12/24 02:09:25;;;;;;;14.68;3.28;;;;;;;;;;4935419;29;20386;-61
2022/12/24 02:11:52;;;;;;;14.85;2.75;;;;;;;;;;4934808;29;20047;-61
2022/12/24 02:14:18;;;;;;;9.45;2.42;;;;;;;;;;4934837;29;20056;-62
2022/12/24 02:16:52;;;;;;;12.93;2.53;;;;;;;;;;4934477;29;20058;-62
2022/12/24 02:19:31;;;;;;;14.65;3.30;;;;;;;;;;4917970;29;20043;-62
2022/12/24 02:22:16;;;;;;;12.25;2.58;;;;;;;;;;4935239;29;20040;-61
2022/12/24 02:24:57;;;;;;;11.93;2.65;;;;;;;;;;4934950;29;20416;-62
2022/12/24 02:27:40;;;;;;;12.20;3.17;;;;;;;;;;4917535;29;20508;-59
2022/12/24 02:30:07;;;;;;;10.35;3.47;;;;;;;;;;4917729;29;20468;-60
2022/12/24 02:32:33;;;;;;;13.80;3.00;;;;;;;;;;4935041;29;20050;-60
2022/12/24 02:35:08;;;;;;;15.25;3.80;;;;;;;;;;4934738;29;20039;-60
2022/12/24 02:37:37;;;;;;;11.90;3.05;;;;;;;;;;4917747;29;20404;-60
2022/12/24 02:40:12;;;;;;;13.57;2.55;;;;;;;;;;4918066;29;20039;-60
2022/12/24 02:42:44;;;;;;;11.32;3.22;;;;;;;;;;4938963;29;20569;-60
2022/12/24 02:45:13;;;;;;;13.38;3.08;;;;;;;;;;4937748;29;20044;-60
2022/12/24 02:47:40;;;;;;;10.65;3.25;;;;;;;;;;4937992;29;20047;-60
2022/12/24 02:50:08;;;;;;;14.13;3.33;;;;;;;;;;4938113;29;20052;-60
2022/12/24 02:52:35;;;;;;;14.55;3.22;;;;;;;;;;4938617;29;20040;-60
2022/12/24 02:55:04;;;;;;;11.70;3.33;;;;;;;;;;4937881;29;20047;-60
2022/12/24 02:57:31;;;;;;;14.63;3.20;;;;;;;;;;4938768;29;20051;-60
2022/12/24 03:00:08;;;;;;;18.63;3.10;;;;;;;;;;4938309;29;20060;-60
2022/12/24 03:02:40;;;;;;;10.70;3.22;;;;;;;;;;4920545;29;20107;-60
2022/12/24 03:05:18;;;;;;;15.45;3.45;;;;;;;;;;4919027;29;20505;-60
2022/12/24 03:08:03;;;;;;;11.07;3.20;;;;;;;;;;4918684;29;20058;-61
2022/12/24 03:10:41;;;;;;;11.73;2.78;;;;;;;;;;4939527;29;20048;-60
2022/12/24 03:13:14;;;;;;;10.23;2.75;;;;;;;;;;4941547;29;20047;-60
2022/12/24 03:15:42;;;;;;;12.10;3.45;;;;;;;;;;4923445;29;20043;-60
2022/12/24 03:18:10;;;;;;;10.27;3.08;;;;;;;;;;4940913;29;20043;-59
2022/12/24 03:20:57;;;;;;;20.70;3.72;;;;;;;;;;4941064;29;20040;-60
2022/12/24 03:23:23;;;;;;;14.45;3.42;;;;;;;;;;4922174;29;20079;-60
2022/12/24 03:25:50;;;;;;;15.68;3.13;;;;;;;;;;4938328;29;20051;-60
2022/12/24 03:28:17;;;;;;;14.07;3.65;;;;;;;;;;4921297;29;20052;-60
2022/12/24 03:30:45;;;;;;;16.38;3.33;;;;;;;;;;4921068;29;20047;-60
2022/12/24 03:33:11;;;;;;;13.98;3.45;;;;;;;;;;4937789;29;20051;-60
2022/12/24 03:35:38;;;;;;;12.68;3.45;;;;;;;;;;4937431;29;20507;-60
2022/12/24 03:38:04;;;;;;;15.85;3.25;;;;;;;;;;4937727;29;20051;-59
2022/12/24 03:40:30;;;;;;;14.80;3.40;;;;;;;;;;4921252;29;20048;-60
2022/12/24 03:42:57;;;;;;;20.20;3.58;;;;;;;;;;4937902;29;20130;-60
2022/12/24 03:45:23;;;;;;;13.23;3.50;;;;;;;;;;4937228;29;20055;-60
2022/12/24 03:47:50;;;;;;;18.08;3.50;;;;;;;;;;4937598;29;20048;-59
2022/12/24 03:50:16;;;;;;;15.20;4.03;;;;;;;;;;4937739;29;20118;-59
2022/12/24 03:52:43;;;;;;;15.75;3.22;;;;;;;;;;4937579;29;20405;-59
2022/12/24 03:55:09;;;;;;;14.30;2.63;;;;;;;;;;4937195;29;20129;-59
2022/12/24 03:57:36;;;;;;;14.68;4.07;;;;;;;;;;4937395;29;20047;-60
2022/12/24 04:00:05;;;;;;;12.82;2.92;;;;;;;;;;4937745;29;20462;-60
2022/12/24 04:02:37;;;;;;;11.10;3.53;;;;;;;;;;4921633;29;20061;-59
2022/12/24 04:05:03;;;;;;;12.75;3.08;;;;;;;;;;4937135;29;20127;-60
2022/12/24 04:07:31;;;;;;;19.55;4.18;;;;;;;;;;4937648;29;20048;-60
2022/12/24 04:09:57;;;;;;;13.10;3.58;;;;;;;;;;4921147;29;20445;-59
2022/12/24 04:12:23;;;;;;;13.02;3.30;;;;;;;;;;4937592;29;20456;-59
2022/12/24 04:14:50;;;;;;;18.50;3.63;;;;;;;;;;4937074;29;20420;-60
2022/12/24 04:17:16;;;;;;;13.40;3.20;;;;;;;;;;4937032;29;20040;-60
2022/12/24 04:19:43;;;;;;;11.35;3.30;;;;;;;;;;4937494;29;20052;-59
2022/12/24 04:22:09;;;;;;;15.00;2.97;;;;;;;;;;4936223;29;20039;-60
2022/12/24 04:24:35;;;;;;;14.70;3.88;;;;;;;;;;4920297;29;20062;-59
2022/12/24 04:27:02;;;;;;;13.98;3.85;;;;;;;;;;4919895;29;20123;-59
2022/12/24 04:29:28;;;;;;;16.90;3.10;;;;;;;;;;4937123;29;20043;-60
2022/12/24 04:31:55;;;;;;;19.02;4.28;;;;;;;;;;4920105;29;20079;-59
2022/12/24 04:34:21;;;;;;;19.10;4.72;;;;;;;;;;4937063;29;20075;-59
2022/12/24 04:36:47;;;;;;;18.80;4.88;;;;;;;;;;4937009;29;20039;-58
2022/12/24 04:39:14;;;;;;;17.27;4.00;;;;;;;;;;4920608;29;20044;-61
2022/12/24 04:41:40;;;;;;;19.83;4.00;;;;;;;;;;4937494;29;20040;-59
2022/12/24 04:44:08;;;;;;;13.85;3.65;;;;;;;;;;4937060;29;20051;-60
2022/12/24 04:46:34;;;;;;;18.75;4.15;;;;;;;;;;4920281;29;20524;-60
2022/12/24 04:49:01;;;;;;;15.73;3.38;;;;;;;;;;4920030;29;20046;-59
2022/12/24 04:51:27;;;;;;;19.65;4.10;;;;;;;;;;4919914;29;20048;-59
2022/12/24 04:53:54;;;;;;;18.60;4.25;;;;;;;;;;4936732;29;20043;-60
2022/12/24 04:56:22;;;;;;;17.55;4.18;;;;;;;;;;4936285;29;20095;-59
2022/12/24 04:58:49;;;;;;;26.20;4.68;;;;;;;;;;4936957;29;20047;-60
2022/12/24 05:01:25;;;;;;;18.95;3.72;;;;;;;;;;5357395;23;20060;-61
2022/12/24 05:03:53;;;;;;;22.80;4.60;;;;;;;;;;4936492;29;20065;-62
2022/12/24 05:06:22;;;;;;;19.42;3.85;;;;;;;;;;4936291;29;20447;-62
2022/12/24 05:08:49;;;;;;;21.30;4.72;;;;;;;;;;4936553;29;20059;-62
2022/12/24 05:11:15;;;;;;;17.98;3.42;;;;;;;;;;4935450;29;20541;-62
2022/12/24 05:13:43;;;;;;;23.48;4.22;;;;;;;;;;4900812;29;20048;-62
2022/12/24 05:16:13;;;;;;;14.98;3.70;;;;;;;;;;4917114;29;20123;-61
2022/12/24 05:18:39;;;;;;;22.15;4.95;;;;;;;;;;4900180;29;20079;-61
2022/12/24 05:21:07;;;;;;;20.98;4.22;;;;;;;;;;4917512;29;20104;-60
2022/12/24 05:26:25;;;;;;;16.65;4.45;;;;;;;;;;4917086;29;20059;-61
2022/12/24 05:28:53;;;;;;;19.33;4.43;;;;;;;;;;4917441;29;20096;-62
2022/12/24 05:31:20;;;;;;;18.17;3.50;;;;;;;;;;4917373;29;20048;-62
2022/12/24 05:33:46;;;;;;;17.38;3.85;;;;;;;;;;4916892;29;20044;-61
2022/12/24 05:36:13;;;;;;;23.48;4.50;;;;;;;;;;4916665;29;20044;-62
2022/12/24 05:38:40;;;;;;;21.45;3.75;;;;;;;;;;4917057;29;20040;-62
2022/12/24 05:41:08;;;;;;;23.15;4.25;;;;;;;;;;4917054;29;20044;-62
2022/12/24 05:43:35;;;;;;;14.63;3.88;;;;;;;;;;4917074;29;20044;-62
2022/12/24 05:46:03;;;;;;;16.77;3.95;;;;;;;;;;4916480;29;20049;-63
2022/12/24 05:48:29;;;;;;;20.13;4.90;;;;;;;;;;4916922;29;20048;-62
2022/12/24 05:50:56;;;;;;;22.85;4.00;;;;;;;;;;4916982;29;20464;-62
2022/12/24 05:53:22;;;;;;;21.45;4.85;;;;;;;;;;4916662;29;20044;-62
2022/12/24 05:55:49;;;;;;;27.08;4.25;;;;;;;;;;4916142;29;20052;-61
2022/12/24 05:58:15;;;;;;;18.40;4.47;;;;;;;;;;4916703;29;20051;-62
2022/12/24 06:00:42;;;;;;;22.00;4.20;;;;;;;;;;4917894;29;20048;-62
2022/12/24 06:03:08;;;;;;;20.48;4.43;;;;;;;;;;4900357;29;20146;-62
2022/12/24 06:05:34;;;;;;;22.33;5.38;;;;;;;;;;4900177;29;20056;-60
2022/12/24 06:08:01;;;;;;;11.77;3.70;;;;;;;;;;4917175;29;20051;-60
2022/12/24 06:10:27;;;;;;;17.67;4.22;;;;;;;;;;4916859;29;20048;-60
2022/12/24 06:12:54;;;;;;;13.80;3.95;;;;;;;;;;4916625;29;20044;-60
2022/12/24 06:15:20;;;;;;;15.07;4.00;;;;;;;;;;4915979;29;20044;-60
2022/12/24 06:17:49;;;;;;;17.92;4.85;;;;;;;;;;4916700;29;20548;-61
2022/12/24 06:20:16;;;;;;;18.25;3.95;;;;;;;;;;4916396;29;20126;-61
2022/12/24 06:22:42;;;;;;;24.10;4.45;;;;;;;;;;4916175;29;20044;-60
2022/12/24 06:25:08;;;;;;;19.25;4.38;;;;;;;;;;4916887;29;20078;-60
2022/12/24 06:27:35;;;;;;;19.88;4.63;;;;;;;;;;4918079;29;20056;-60
2022/12/24 06:30:01;;;;;;;19.80;4.90;;;;;;;;;;4918130;29;20036;-61
2022/12/24 06:32:27;;;;;;;18.45;3.90;;;;;;;;;;4901198;29;20398;-61
2022/12/24 06:34:54;;;;;;;19.25;3.42;;;;;;;;;;4917679;29;20040;-61
2022/12/24 06:37:20;;;;;;;23.60;5.20;;;;;;;;;;4918121;29;20103;-61
2022/12/24 06:39:46;;;;;;;22.48;4.60;;;;;;;;;;4918141;29;20044;-60
2022/12/24 06:42:13;;;;;;;12.20;3.22;;;;;;;;;;4898916;29;20120;-60
2022/12/24 06:44:39;;;;;;;23.48;4.32;;;;;;;;;;4915358;29;20040;-60
2022/12/24 06:47:06;;;;;;;20.73;4.13;;;;;;;;;;4915422;29;20056;-60
2022/12/24 06:49:32;;;;;;;24.27;4.97;;;;;;;;;;4915803;29;20080;-60
2022/12/24 06:51:58;;;;;;;18.23;5.03;;;;;;;;;;4916152;29;20559;-60
2022/12/24 06:54:25;;;;;;;20.23;4.45;;;;;;;;;;4916326;29;20044;-59
2022/12/24 06:56:51;;;;;;;25.85;3.92;;;;;;;;;;4916417;29;20041;-60
2022/12/24 06:59:17;;;;;;;20.48;4.40;;;;;;;;;;4917250;29;20068;-61
2022/12/24 07:01:44;;;;;;;18.33;4.15;;;;;;;;;;4916903;29;20044;-61
2022/12/24 07:04:10;;;;;;;22.88;6.13;;;;;;;;;;4917360;29;20584;-61
2022/12/24 07:06:45;;;;;;;25.17;4.15;;;;;;;;;;4916502;29;20059;-61
2022/12/24 07:09:13;;;;;;;21.27;4.38;;;;;;;;;;4899752;29;20056;-60
2022/12/24 07:11:39;;;;;;;23.98;4.50;;;;;;;;;;4917677;29;20134;-62
2022/12/24 07:14:05;;;;;;;19.92;4.03;;;;;;;;;;4917191;29;20044;-61
2022/12/24 07:16:32;;;;;;;25.95;5.38;;;;;;;;;;4916699;29;20099;-61
2022/12/24 07:18:58;;;;;;;19.90;5.35;;;;;;;;;;4917392;29;20055;-61
2022/12/24 07:21:25;;;;;;;26.25;5.32;;;;;;;;;;4916759;29;20044;-59
2022/12/24 07:23:51;;;;;;;26.38;4.78;;;;;;;;;;4915870;29;20040;-62
2022/12/24 07:26:18;;;;;;;23.92;4.72;;;;;;;;;;4915804;29;20119;-61
2022/12/24 07:28:44;;;;;;;27.45;5.40;;;;;;;;;;4883643;29;20044;-61
2022/12/24 07:31:10;;;;;;;19.45;5.03;;;;;;;;;;4916770;29;20044;-61
2022/12/24 07:33:37;;;;;;;18.83;4.57;;;;;;;;;;4916606;29;20068;-62
2022/12/24 07:36:04;;;;;;;21.10;4.95;;;;;;;;;;4916226;29;20576;-62
2022/12/24 07:38:31;;;;;;;27.58;5.28;;;;;;;;;;4916546;29;20052;-60
2022/12/24 07:40:58;;;;;;;25.33;5.13;;;;;;;;;;4917050;29;20048;-62
2022/12/24 07:43:25;;;;;;;18.52;4.68;;;;;;;;;;4917593;29;20061;-61
2022/12/24 07:45:55;;;;;;;22.15;5.70;;;;;;;;;;4916833;29;20059;-61
2022/12/24 07:48:22;;;;;;;23.27;5.15;;;;;;;;;;4917622;29;20131;-60
2022/12/24 07:50:49;;;;;;;18.50;4.38;;;;;;;;;;4917781;29;20052;-61
2022/12/24 07:53:15;;;;;;;19.63;5.00;;;;;;;;;;4900018;29;20052;-61
2022/12/24 07:55:42;;;;;;;23.27;4.63;;;;;;;;;;4917354;29;20070;-60
2022/12/24 07:58:09;;;;;;;25.30;5.20;;;;;;;;;;4920883;29;20127;-61
2022/12/24 08:00:35;;;;;;;23.20;5.93;;;;;;;;;;4919458;29;20092;-60
2022/12/24 08:03:02;;;;;;;22.17;4.65;;;;;;;;;;4919034;29;20044;-60
2022/12/24 08:05:32;;;;;;;25.48;4.90;;;;;;;;;;4918901;29;20048;-61
2022/12/24 08:07:58;;;;;;;19.48;4.43;;;;;;;;;;4919333;29;20052;-61
2022/12/24 08:10:25;;;;;;;20.83;4.85;;;;;;;;;;4919304;29;20133;-61
2022/12/24 08:12:51;;;;;;;16.90;4.45;;;;;;;;;;4919368;29;20052;-61
2022/12/24 08:15:17;;;;;;;22.25;4.70;;;;;;;;;;4917936;29;20044;-61
2022/12/24 08:17:44;;;;;;;25.38;5.13;;;;;;;;;;4919132;29;20457;-62
2022/12/24 08:20:10;;;;;;;28.92;5.68;;;;;;;;;;4902444;29;20059;-61
2022/12/24 08:22:37;;;;;;;28.88;4.90;;;;;;;;;;4902362;29;20044;-62
2022/12/24 08:25:03;;;;;;;21.63;5.30;;;;;;;;;;4919498;29;20085;-61
2022/12/24 08:27:29;;;;;;;26.88;4.95;;;;;;;;;;4919728;29;20096;-60
2022/12/24 08:29:56;;;;;;;25.88;5.30;;;;;;;;;;4919752;29;20085;-59
2022/12/24 08:32:22;;;;;;;26.52;5.43;;;;;;;;;;4920002;29;20040;-59
2022/12/24 08:34:48;;;;;;;24.33;5.15;;;;;;;;;;4919968;29;20048;-60
2022/12/24 08:37:15;;;;;;;21.23;4.97;;;;;;;;;;4919252;29;20059;-60
2022/12/24 08:39:41;;;;;;;16.98;4.38;;;;;;;;;;4919322;29;20119;-60
2022/12/24 08:42:08;;;;;;;19.55;4.40;;;;;;;;;;4919294;29;20465;-60
2022/12/24 08:44:34;;;;;;;27.10;5.32;;;;;;;;;;4920404;29;20040;-60
2022/12/24 08:47:00;;;;;;;18.90;4.50;;;;;;;;;;4919310;29;20052;-60
2022/12/24 08:49:27;;;;;;;20.90;4.65;;;;;;;;;;4919755;29;20048;-60
2022/12/24 08:51:53;;;;;;;21.42;4.75;;;;;;;;;;4919778;29;20580;-60
2022/12/24 08:54:21;;;;;;;25.60;4.88;;;;;;;;;;4918967;29;20516;-60
2022/12/24 08:56:47;;;;;;;21.65;5.55;;;;;;;;;;4917934;29;20489;-60
2022/12/24 08:59:14;;;;;;;24.73;4.78;;;;;;;;;;4919084;29;20040;-63
2022/12/24 09:01:40;;;;;;;18.52;4.25;;;;;;;;;;4901706;29;20036;-61
2022/12/24 09:04:08;;;;;;;29.33;5.97;;;;;;;;;;4918843;29;20076;-61
2022/12/24 09:06:35;;;;;;;21.02;4.60;;;;;;;;;;4900669;29;20149;-60
2022/12/24 09:09:02;;;;;;;22.13;4.85;;;;;;;;;;4917353;29;20109;-61
2022/12/24 09:11:29;;;;;;;22.23;4.60;;;;;;;;;;4917791;29;20048;-61
2022/12/24 09:13:55;;;;;;;23.20;4.75;;;;;;;;;;4900741;29;20056;-61
2022/12/24 09:16:21;;;;;;;21.17;4.90;;;;;;;;;;4917149;29;20087;-61
2022/12/24 09:18:48;;;;;;;50.38;14.48;;;;;;;;;;4918020;29;20040;-60
2022/12/24 09:21:14;;;;;;;41.20;13.40;;;;;;;;;;4919161;29;20428;-61
2022/12/24 09:23:42;;;;;;;28.20;7.25;;;;;;;;;;4918436;29;20112;-60
2022/12/24 09:26:10;;;;;;;23.33;5.78;;;;;;;;;;4900461;29;20099;-61
2022/12/24 09:28:37;;;;;;;28.10;7.47;;;;;;;;;;4918574;29;20048;-61
2022/12/24 09:31:04;;;;;;;19.23;6.78;;;;;;;;;;4918025;29;20108;-62
2022/12/24 09:33:32;;;;;;;24.58;6.50;;;;;;;;;;4917361;29;20044;-61
2022/12/24 09:35:59;;;;;;;32.25;7.78;;;;;;;;;;4916609;29;20099;-63
2022/12/24 09:38:26;;;;;;;17.80;5.05;;;;;;;;;;4917195;29;20063;-62
2022/12/24 09:40:53;;;;;;;26.65;5.38;;;;;;;;;;4917508;29;20068;-61
2022/12/24 09:43:20;;;;;;;18.73;4.93;;;;;;;;;;4917162;29;20102;-60
2022/12/24 09:45:49;;;;;;;18.60;6.10;;;;;;;;;;4916649;29;20059;-60
2022/12/24 09:48:20;;;;;;;18.40;4.95;;;;;;;;;;4917063;29;20048;-61
2022/12/24 09:51:00;;;;;;;22.17;4.38;;;;;;;;;;4900535;29;20095;-60
2022/12/24 09:53:26;;;;;;;21.52;4.75;;;;;;;;;;4900066;29;20059;-61
2022/12/24 09:55:55;;;;;;;19.63;4.68;;;;;;;;;;4916452;29;20091;-60
2022/12/24 09:58:39;;;;;;;21.63;4.90;;;;;;;;;;4916818;29;20044;-60
2022/12/24 10:01:06;;;;;;;21.50;4.47;;;;;;;;;;4899898;29;20572;-60
2022/12/24 10:03:32;;;;;;;22.88;5.10;;;;;;;;;;4916480;29;20520;-60
2022/12/24 10:05:59;;;;;;;23.23;4.25;;;;;;;;;;4899142;29;20143;-60
2022/12/24 10:08:30;;;;;;;19.10;5.53;;;;;;;;;;4899944;29;20059;-61
2022/12/24 10:11:01;;;;;;;17.85;4.80;;;;;;;;;;4917078;29;20120;-60
2022/12/24 10:13:46;;;;;;;21.55;4.95;;;;;;;;;;4917269;29;20048;-61
2022/12/24 10:16:32;;;;;;;16.05;4.43;;;;;;;;;;4899615;29;20032;-61
2022/12/24 10:19:04;;;;;;;21.10;5.22;;;;;;;;;;4915908;29;20036;-62
2022/12/24 10:21:49;;;;;;;22.48;5.53;;;;;;;;;;4916924;29;20048;-62
2022/12/24 10:24:22;;;;;;;17.60;4.95;;;;;;;;;;4916656;29;20052;-62
2022/12/24 10:26:54;;;;;;;17.50;4.05;;;;;;;;;;4899160;29;20051;-62
2022/12/24 10:29:29;;;;;;;19.35;4.05;;;;;;;;;;4916743;29;20107;-61
2022/12/24 10:32:08;;;;;;;18.38;4.47;;;;;;;;;;4916178;29;20087;-62
2022/12/24 10:34:42;;;;;;;16.42;4.68;;;;;;;;;;4899148;29;20059;-62
2022/12/24 10:37:14;;;;;;;20.80;4.07;;;;;;;;;;4915820;29;20043;-62
2022/12/24 10:39:41;;;;;;;25.00;4.50;;;;;;;;;;4916307;29;20048;-62
2022/12/24 10:42:08;;;;;;;24.05;4.13;;;;;;;;;;4916181;29;20048;-61
2022/12/24 10:44:34;;;;;;;20.30;4.63;;;;;;;;;;4899288;29;20051;-62
2022/12/24 10:47:00;;;;;;;21.15;5.38;;;;;;;;;;4915490;29;20048;-62
2022/12/24 10:49:30;;;;;;;12.38;3.78;;;;;;;;;;4916111;29;20111;-61
2022/12/24 10:52:08;;;;;;;15.82;3.85;;;;;;;;;;4916429;29;20067;-61
2022/12/24 10:54:38;;;;;;;22.05;4.28;;;;;;;;;;4916270;29;20100;-63
2022/12/24 10:57:05;;;;;;;24.42;5.15;;;;;;;;;;4915518;29;20051;-63
2022/12/24 10:59:35;;;;;;;18.75;5.32;;;;;;;;;;4916334;29;20404;-62
2022/12/24 11:02:01;;;;;;;20.55;4.60;;;;;;;;;;4916791;29;20493;-63
2022/12/24 11:04:29;;;;;;;20.27;5.07;;;;;;;;;;4917042;29;20037;-61
2022/12/24 11:06:58;;;;;;;19.70;4.63;;;;;;;;;;4899404;29;20047;-60
2022/12/24 11:09:27;;;;;;;23.20;5.22;;;;;;;;;;4900654;29;20077;-60
2022/12/24 11:11:54;;;;;;;21.23;4.07;;;;;;;;;;4916845;29;20048;-61
2022/12/24 11:14:21;;;;;;;14.90;4.43;;;;;;;;;;4916555;29;20056;-61
2022/12/24 11:16:51;;;;;;;16.63;4.78;;;;;;;;;;4915798;29;20048;-61
2022/12/24 11:19:21;;;;;;;21.35;4.90;;;;;;;;;;4916194;29;20350;-61
2022/12/24 11:21:56;;;;;;;21.92;5.10;;;;;;;;;;4915693;29;20048;-62
2022/12/24 11:24:26;;;;;;;20.38;4.25;;;;;;;;;;4899166;29;20048;-61
2022/12/24 11:26:53;;;;;;;21.02;4.28;;;;;;;;;;4916144;29;20055;-62
2022/12/24 11:29:24;;;;;;;20.75;4.60;;;;;;;;;;4916944;29;20084;-62
2022/12/24 11:31:53;;;;;;;12.80;4.10;;;;;;;;;;4919863;29;20103;-62
2022/12/24 11:34:32;;;;;;;18.00;4.43;;;;;;;;;;4920300;29;20052;-62
2022/12/24 11:37:09;;;;;;;16.42;5.45;;;;;;;;;;4920407;29;20095;-62
2022/12/24 11:39:42;;;;;;;20.05;5.60;;;;;;;;;;4921886;29;20405;-61
2022/12/24 11:42:22;;;;;;;21.65;5.95;;;;;;;;;;4919706;29;20048;-61
2022/12/24 11:44:49;;;;;;;20.42;5.35;;;;;;;;;;4902844;29;20336;-61
2022/12/24 11:47:15;;;;;;;17.88;5.15;;;;;;;;;;4919326;29;20054;-61
2022/12/24 11:49:42;;;;;;;21.00;5.18;;;;;;;;;;4919401;29;20048;-61
2022/12/24 11:52:08;;;;;;;15.82;4.57;;;;;;;;;;4919578;29;20073;-61
2022/12/24 11:54:58;;;;;;;18.65;4.95;;;;;;;;;;4903001;29;20048;-61
2022/12/24 11:57:27;;;;;;;20.77;5.05;;;;;;;;;;4914192;29;20067;-60
2022/12/24 11:59:53;;;;;;;23.38;5.68;;;;;;;;;;4903021;29;20048;-60
2022/12/24 12:02:32;;;;;;;25.52;5.03;;;;;;;;;;4902790;29;20060;-61
2022/12/24 12:05:03;;;;;;;14.52;3.60;;;;;;;;;;4919655;29;20119;-62
2022/12/24 12:07:32;;;;;;;17.90;4.63;;;;;;;;;;4919717;29;20520;-61
2022/12/24 12:10:09;;;;;;;20.65;4.95;;;;;;;;;;4919644;29;20445;-64
2022/12/24 12:12:39;;;;;;;23.98;5.18;;;;;;;;;;4921043;29;20513;-61
2022/12/24 12:15:18;;;;;;;19.10;4.53;;;;;;;;;;4902351;29;20051;-61
2022/12/24 12:17:44;;;;;;;17.35;4.55;;;;;;;;;;4919368;29;20048;-60
2022/12/24 12:20:16;;;;;;;18.80;3.95;;;;;;;;;;4919985;29;20556;-60
2022/12/24 12:22:43;;;;;;;17.35;4.10;;;;;;;;;;4919392;29;20052;-61
2022/12/24 12:25:21;;;;;;;15.30;3.15;;;;;;;;;;4918916;29;20044;-61
2022/12/24 12:27:49;;;;;;;11.50;3.70;;;;;;;;;;4918711;29;20068;-61
2022/12/24 12:30:17;;;;;;;13.80;3.92;;;;;;;;;;4918716;29;20115;-62
2022/12/24 12:32:50;;;;;;;13.88;3.67;;;;;;;;;;4918832;29;20108;-62
2022/12/24 12:35:25;;;;;;;11.48;3.38;;;;;;;;;;4901198;29;20095;-60
2022/12/24 12:37:57;;;;;;;16.08;4.28;;;;;;;;;;4918682;29;20052;-61
2022/12/24 12:40:53;;;;;;;15.50;3.70;;;;;;;;;;4918754;29;20051;-60
2022/12/24 12:43:19;;;;;;;15.52;3.80;;;;;;;;;;4909920;29;20520;-62
2022/12/24 12:45:51;;;;;;;17.38;4.50;;;;;;;;;;4918357;29;20053;-61
2022/12/24 12:48:21;;;;;;;13.32;4.40;;;;;;;;;;4918829;29;20055;-61
2022/12/24 12:50:57;;;;;;;15.93;4.60;;;;;;;;;;4901909;29;20044;-61
2022/12/24 12:53:34;;;;;;;15.73;4.22;;;;;;;;;;4918529;29;20051;-61
2022/12/24 12:56:29;;;;;;;16.83;3.92;;;;;;;;;;4900842;29;20096;-62
2022/12/24 12:59:02;;;;;;;13.38;3.50;;;;;;;;;;4918044;29;20076;-62
2022/12/24 13:01:48;;;;;;;10.20;3.20;;;;;;;;;;4917163;29;20055;-62
2022/12/24 13:04:27;;;;;;;9.35;3.10;;;;;;;;;;4918258;29;20123;-61
2022/12/24 13:07:00;;;;;;;13.35;3.45;;;;;;;;;;4900311;29;20052;-61
2022/12/24 13:09:44;;;;;;;14.48;3.70;;;;;;;;;;4918153;29;20346;-61
2022/12/24 13:12:30;;;;;;;11.68;4.00;;;;;;;;;;4917736;29;20115;-61
2022/12/24 13:15:10;;;;;;;7.80;3.47;;;;;;;;;;4900504;29;20197;-61
2022/12/24 13:17:41;;;;;;;12.25;4.47;;;;;;;;;;4917634;29;20449;-61
2022/12/24 13:20:19;;;;;;;9.40;2.53;;;;;;;;;;4900839;29;20096;-60
2022/12/24 13:22:58;;;;;;;12.02;3.40;;;;;;;;;;4917372;29;20044;-61
2022/12/24 13:25:41;;;;;;;14.25;3.75;;;;;;;;;;4916917;29;20036;-60
2022/12/24 13:28:23;;;;;;;14.20;3.33;;;;;;;;;;4917595;29;20458;-61
2022/12/24 13:30:50;;;;;;;12.25;3.85;;;;;;;;;;4917724;29;20421;-61
2022/12/24 13:33:43;;;;;;;14.65;4.00;;;;;;;;;;4917836;29;20394;-62
2022/12/24 13:36:12;;;;;;;11.77;2.97;;;;;;;;;;4915796;29;20056;-61
2022/12/24 13:38:45;;;;;;;15.57;4.22;;;;;;;;;;4902667;29;20044;-60
2022/12/24 13:41:30;;;;;;;15.43;3.63;;;;;;;;;;4917641;29;20052;-61
2022/12/24 13:44:11;;;;;;;19.02;4.57;;;;;;;;;;4917938;29;20496;-61
2022/12/24 13:46:49;;;;;;;16.33;4.78;;;;;;;;;;4917141;29;20048;-61
2022/12/24 13:49:24;;;;;;;17.98;4.95;;;;;;;;;;4917291;29;20135;-61
2022/12/24 13:52:03;;;;;;;18.27;4.25;;;;;;;;;;4917016;29;20040;-62
2022/12/24 13:54:30;;;;;;;17.52;4.28;;;;;;;;;;4917199;29;20059;-62
2022/12/24 13:56:57;;;;;;;23.73;4.70;;;;;;;;;;4918304;29;20096;-61
2022/12/24 13:59:28;;;;;;;17.65;4.78;;;;;;;;;;4901454;29;20397;-61
2022/12/24 14:02:03;;;;;;;15.02;4.40;;;;;;;;;;4899974;29;20526;-61
2022/12/24 14:04:32;;;;;;;19.83;4.88;;;;;;;;;;4917377;29;20078;-61
2022/12/24 14:06:59;;;;;;;18.75;5.00;;;;;;;;;;4916605;29;20515;-61
2022/12/24 14:09:27;;;;;;;15.60;4.68;;;;;;;;;;4917605;29;20453;-61
2022/12/24 14:12:02;;;;;;;16.17;4.70;;;;;;;;;;4917192;29;20048;-61
2022/12/24 14:14:36;;;;;;;21.02;4.15;;;;;;;;;;4917250;29;20059;-61
2022/12/24 14:17:08;;;;;;;19.20;4.18;;;;;;;;;;4917317;29;20040;-61
2022/12/24 14:19:40;;;;;;;22.88;4.30;;;;;;;;;;4917811;29;20072;-61
2022/12/24 14:22:24;;;;;;;17.15;4.70;;;;;;;;;;4918043;29;20048;-61
2022/12/24 14:24:55;;;;;;;21.45;4.95;;;;;;;;;;4900564;29;20044;-61
2022/12/24 14:27:40;;;;;;;17.55;4.55;;;;;;;;;;4917645;29;20082;-61
2022/12/24 14:30:14;;;;;;;16.08;4.32;;;;;;;;;;4917491;29;20048;-61
2022/12/24 14:32:41;;;;;;;18.25;4.47;;;;;;;;;;4917702;29;20076;-61
2022/12/24 14:35:36;;;;;;;15.30;4.30;;;;;;;;;;4917892;29;20052;-61
2022/12/24 14:38:03;;;;;;;21.70;4.88;;;;;;;;;;4896707;29;20087;-62
2022/12/24 14:40:30;;;;;;;15.90;4.38;;;;;;;;;;4916787;29;20056;-61
2022/12/24 14:43:04;;;;;;;16.95;4.18;;;;;;;;;;4918261;29;20107;-63
2022/12/24 14:45:57;;;;;;;19.70;5.13;;;;;;;;;;4917825;29;20059;-61
2022/12/24 14:48:33;;;;;;;21.55;4.47;;;;;;;;;;4899480;29;20055;-60
2022/12/24 14:51:17;;;;;;;20.35;5.32;;;;;;;;;;4917655;29;20381;-61
2022/12/24 14:54:13;;;;;;;17.27;4.57;;;;;;;;;;4900352;29;20138;-60